createdAt,value
2019-04-16T00:02:18.500Z,6.70
2019-04-16T00:04:43.515Z,6.20
2019-04-16T00:07:12.666Z,5.90
2019-04-16T00:09:41.296Z,6.00
2019-04-16T00:12:11.628Z,6.00
2019-04-16T00:14:42.517Z,6.00
2019-04-16T00:17:09.192Z,5.80
2019-04-16T00:19:36.965Z,6.20
2019-04-16T00:22:05.570Z,6.60
2019-04-16T00:24:35.077Z,6.90
2019-04-16T00:27:01.676Z,6.70
2019-04-16T00:29:33.596Z,6.60
2019-04-16T00:32:00.354Z,6.50
2019-04-16T00:34:28.484Z,6.10
2019-04-16T00:36:59.899Z,6.30
2019-04-16T00:39:28.796Z,6.70
2019-04-16T00:41:55.759Z,6.60
2019-04-16T00:44:26.298Z,6.70
2019-04-16T00:46:55.092Z,6.70
2019-04-16T00:49:26.604Z,6.40
2019-04-16T00:51:56.193Z,6.10
2019-04-16T00:54:24.300Z,6.00
2019-04-16T00:56:51.265Z,6.10
2019-04-16T00:59:18.351Z,6.20
2019-04-16T01:01:47.768Z,6.10
2019-04-16T01:04:17.223Z,5.50
2019-04-16T01:06:47.698Z,6.10
2019-04-16T01:09:16.588Z,5.90
2019-04-16T01:11:46.060Z,6.20
2019-04-16T01:14:13.482Z,6.10
2019-04-16T01:16:40.098Z,5.80
2019-04-16T01:19:09.500Z,6.00
2019-04-16T01:21:35.475Z,5.70
2019-04-16T01:24:02.090Z,5.80
2019-04-16T01:26:28.994Z,6.00
2019-04-16T01:29:02.338Z,6.10
2019-04-16T01:31:25.798Z,6.20
2019-04-16T01:34:04.465Z,6.40
2019-04-16T01:36:22.836Z,6.20
2019-04-16T01:38:49.980Z,6.10
2019-04-16T01:41:21.715Z,5.90
2019-04-16T01:43:47.901Z,6.00
2019-04-16T01:46:16.643Z,5.90
2019-04-16T01:48:43.869Z,5.40
2019-04-16T01:51:12.626Z,5.30
2019-04-16T01:53:39.430Z,4.80
2019-04-16T01:56:06.285Z,5.10
2019-04-16T01:58:33.864Z,5.60
2019-04-16T02:01:01.339Z,6.00
2019-04-16T02:03:28.207Z,5.60
2019-04-16T02:05:55.593Z,5.20
2019-04-16T02:08:22.543Z,5.20
2019-04-16T02:10:49.205Z,5.50
2019-04-16T02:13:16.021Z,4.70
2019-04-16T02:15:42.954Z,4.40
2019-04-16T02:18:09.619Z,4.80
2019-04-16T02:20:39.322Z,4.80
2019-04-16T02:23:05.966Z,4.90
2019-04-16T02:25:32.748Z,5.30
2019-04-16T02:27:59.373Z,4.90
2019-04-16T02:30:26.039Z,5.00
2019-04-16T02:32:52.636Z,4.80
2019-04-16T02:35:19.360Z,4.60
2019-04-16T02:37:45.984Z,4.90
2019-04-16T02:40:17.216Z,5.00
2019-04-16T02:42:41.250Z,4.60
2019-04-16T02:45:08.436Z,4.70
2019-04-16T02:47:51.512Z,4.30
2019-04-16T02:50:18.533Z,4.40
2019-04-16T02:52:50.218Z,4.30
2019-04-16T02:55:13.796Z,4.20
2019-04-16T02:57:40.910Z,4.40
2019-04-16T03:00:07.887Z,4.60
2019-04-16T03:02:34.499Z,4.90
2019-04-16T03:05:01.719Z,4.60
2019-04-16T03:07:28.493Z,4.00
2019-04-16T03:10:01.608Z,3.90
2019-04-16T03:12:23.744Z,3.90
2019-04-16T03:14:50.365Z,3.80
2019-04-16T03:17:16.979Z,3.90
2019-04-16T03:19:43.934Z,4.20
2019-04-16T03:22:10.531Z,4.80
2019-04-16T03:24:37.561Z,4.80
2019-04-16T03:27:05.916Z,4.50
2019-04-16T03:29:32.802Z,4.50
2019-04-16T03:31:59.804Z,4.50
2019-04-16T03:34:26.883Z,4.60
2019-04-16T03:36:53.510Z,4.80
2019-04-16T03:39:20.185Z,4.50
2019-04-16T03:41:47.287Z,4.70
2019-04-16T03:44:13.940Z,4.90
2019-04-16T03:46:46.292Z,4.70
2019-04-16T03:49:08.889Z,4.80
2019-04-16T03:51:36.573Z,4.50
2019-04-16T03:54:05.003Z,4.40
2019-04-16T03:56:32.098Z,4.40
2019-04-16T03:58:58.755Z,4.00
2019-04-16T04:01:25.750Z,4.10
2019-04-16T04:03:57.070Z,4.40
2019-04-16T04:06:21.023Z,4.30
2019-04-16T04:08:48.996Z,4.40
2019-04-16T04:11:16.170Z,4.20
2019-04-16T04:13:42.864Z,4.50
2019-04-16T04:16:09.471Z,4.50
2019-04-16T04:18:42.960Z,4.60
2019-04-16T04:21:08.078Z,4.50
2019-04-16T04:23:34.935Z,4.50
2019-04-16T04:26:01.964Z,4.80
2019-04-16T04:28:28.900Z,4.80
2019-04-16T04:30:57.647Z,5.10
2019-04-16T04:33:24.204Z,5.20
2019-04-16T04:35:52.057Z,5.20
2019-04-16T04:38:21.051Z,5.00
2019-04-16T04:40:50.425Z,4.80
2019-04-16T04:43:16.235Z,4.10
2019-04-16T04:45:42.928Z,4.10
2019-04-16T04:48:11.667Z,4.40
2019-04-16T04:50:38.157Z,4.40
2019-04-16T04:53:04.764Z,4.10
2019-04-16T04:55:31.521Z,4.20
2019-04-16T04:58:02.519Z,4.40
2019-04-16T05:00:26.606Z,4.60
2019-04-16T05:02:53.227Z,4.80
2019-04-16T05:05:24.258Z,4.60
2019-04-16T05:07:48.326Z,4.30
2019-04-16T05:10:15.086Z,4.40
2019-04-16T05:12:41.781Z,4.90
2019-04-16T05:15:08.365Z,5.20
2019-04-16T05:17:35.455Z,5.70
2019-04-16T05:20:03.361Z,6.10
2019-04-16T05:22:33.182Z,6.50
2019-04-16T05:25:01.424Z,6.50
2019-04-16T05:27:29.473Z,6.90
2019-04-16T05:29:57.065Z,6.90
2019-04-16T05:32:25.901Z,7.10
2019-04-16T05:34:52.075Z,7.30
2019-04-16T05:37:19.833Z,7.20
2019-04-16T05:39:47.659Z,7.30
2019-04-16T05:42:14.247Z,7.20
2019-04-16T05:44:41.164Z,7.50
2019-04-16T05:47:08.281Z,7.70
2019-04-16T05:49:34.938Z,7.90
2019-04-16T05:54:47.526Z,8.20
2019-04-16T05:57:14.295Z,8.10
2019-04-16T05:59:40.932Z,7.70
2019-04-16T06:02:07.695Z,7.80
2019-04-16T06:04:34.481Z,7.80
2019-04-16T06:07:03.724Z,8.00
2019-04-16T06:09:29.458Z,8.10
2019-04-16T06:11:56.221Z,8.20
2019-04-16T06:14:25.720Z,8.50
2019-04-16T06:16:53.380Z,8.30
2019-04-16T06:19:19.845Z,8.10
2019-04-16T06:21:46.479Z,8.50
2019-04-16T06:24:13.304Z,8.20
2019-04-16T06:26:39.935Z,8.40
2019-04-16T06:29:06.573Z,8.90
2019-04-16T06:31:33.457Z,8.90
2019-04-16T06:34:00.345Z,8.90
2019-04-16T06:36:26.987Z,9.20
2019-04-16T06:38:54.989Z,9.10
2019-04-16T06:41:22.247Z,9.50
2019-04-16T06:43:48.872Z,9.00
2019-04-16T06:46:15.538Z,9.50
2019-04-16T06:48:45.597Z,9.40
2019-04-16T06:51:12.424Z,9.60
2019-04-16T06:53:39.026Z,9.80
2019-04-16T06:56:08.812Z,10.10
2019-04-16T06:58:50.197Z,10.20
2019-04-16T07:01:06.790Z,9.80
2019-04-16T07:03:33.745Z,10.10
2019-04-16T07:06:18.414Z,10.50
2019-04-16T07:08:49.814Z,10.70
2019-04-16T07:11:13.933Z,11.00
2019-04-16T07:13:42.206Z,10.60
2019-04-16T07:16:09.162Z,10.60
2019-04-16T07:18:38.737Z,10.80
2019-04-16T07:21:04.869Z,10.60
2019-04-16T07:23:31.619Z,10.70
2019-04-16T07:25:58.189Z,10.90
2019-04-16T07:28:26.487Z,10.90
2019-04-16T07:30:53.717Z,11.00
2019-04-16T07:33:20.234Z,10.90
2019-04-16T07:35:46.789Z,11.00
2019-04-16T07:40:53.606Z,11.10
2019-04-16T07:43:20.298Z,10.90
2019-04-16T07:45:47.526Z,11.10
2019-04-16T07:48:14.865Z,11.40
2019-04-16T07:50:41.515Z,11.80
2019-04-16T07:53:13.554Z,12.50
2019-04-16T07:55:40.104Z,12.90
2019-04-16T07:58:06.987Z,13.10
2019-04-16T08:00:41.267Z,13.10
2019-04-16T08:03:07.595Z,12.90
2019-04-16T08:05:34.491Z,12.80
2019-04-16T08:08:01.030Z,12.80
2019-04-16T08:10:28.312Z,12.10
2019-04-16T08:13:00.572Z,11.80
2019-04-16T08:15:27.794Z,11.80
2019-04-16T08:17:54.708Z,12.40
2019-04-16T08:20:24.030Z,12.30
2019-04-16T08:22:50.587Z,12.80
2019-04-16T08:25:17.134Z,12.90
2019-04-16T08:27:47.225Z,12.70
2019-04-16T08:30:16.902Z,13.60
2019-04-16T08:32:45.806Z,13.60
2019-04-16T08:35:17.659Z,13.40
2019-04-16T08:37:49.528Z,13.20
2019-04-16T08:40:23.936Z,13.60
2019-04-16T08:42:50.554Z,13.80
2019-04-16T08:45:21.079Z,14.00
2019-04-16T08:48:04.553Z,13.70
2019-04-16T08:50:33.828Z,14.30
2019-04-16T08:53:18.393Z,13.80
2019-04-16T08:55:48.745Z,13.50
2019-04-16T08:58:15.661Z,13.40
2019-04-16T09:01:10.539Z,13.80
2019-04-16T09:03:38.979Z,14.00
2019-04-16T09:06:05.770Z,13.50
2019-04-16T09:08:35.952Z,13.60
2019-04-16T09:11:03.329Z,14.60
2019-04-16T09:13:33.152Z,14.80
2019-04-16T09:16:02.199Z,15.00
2019-04-16T09:18:29.333Z,15.10
2019-04-16T09:20:56.846Z,15.30
2019-04-16T09:23:26.969Z,15.40
2019-04-16T09:25:55.158Z,14.90
2019-04-16T09:28:26.375Z,15.20
2019-04-16T09:30:55.092Z,15.40
2019-04-16T09:33:21.804Z,16.00
2019-04-16T09:35:51.153Z,15.90
2019-04-16T09:38:18.313Z,15.90
2019-04-16T09:40:44.959Z,15.30
2019-04-16T09:43:17.245Z,15.20
2019-04-16T09:45:40.258Z,15.40
2019-04-16T09:48:06.995Z,15.90
2019-04-16T09:50:33.658Z,16.10
2019-04-16T09:53:01.926Z,15.80
2019-04-16T09:55:28.880Z,15.60
2019-04-16T09:57:55.827Z,15.50
2019-04-16T10:00:22.577Z,15.70
2019-04-16T10:02:49.219Z,15.80
2019-04-16T10:05:15.961Z,16.00
2019-04-16T10:07:42.899Z,16.00
2019-04-16T10:10:09.582Z,16.00
2019-04-16T10:12:36.263Z,16.60
2019-04-16T10:15:02.822Z,16.60
2019-04-16T10:17:29.379Z,16.40
2019-04-16T10:19:56.297Z,16.20
2019-04-16T10:22:23.194Z,16.50
2019-04-16T10:24:49.951Z,15.60
2019-04-16T10:27:16.912Z,16.00
2019-04-16T10:29:43.470Z,16.70
2019-04-16T10:32:09.994Z,17.20
2019-04-16T10:34:36.798Z,17.40
2019-04-16T10:37:04.276Z,17.60
2019-04-16T10:39:31.090Z,17.60
2019-04-16T10:41:58.182Z,17.50
2019-04-16T10:44:24.761Z,17.50
2019-04-16T10:46:51.286Z,17.60
2019-04-16T10:49:18.269Z,17.00
2019-04-16T10:51:44.965Z,17.50
2019-04-16T10:54:11.517Z,17.40
2019-04-16T10:56:38.123Z,17.10
2019-04-16T10:59:05.174Z,17.50
2019-04-16T11:01:35.017Z,17.80
2019-04-16T11:04:00.113Z,17.70
2019-04-16T11:06:26.819Z,18.00
2019-04-16T11:08:55.416Z,18.10
2019-04-16T11:11:22.450Z,18.80
2019-04-16T11:13:59.653Z,18.60
2019-04-16T11:19:16.524Z,18.90
2019-04-16T11:21:44.396Z,17.60
2019-04-16T11:24:11.193Z,18.10
2019-04-16T11:26:38.108Z,17.20
2019-04-16T11:29:05.336Z,17.70
2019-04-16T11:31:33.692Z,18.30
2019-04-16T11:34:00.400Z,18.60
2019-04-16T11:36:30.552Z,18.20
2019-04-16T11:41:40.187Z,19.40
2019-04-16T11:44:15.483Z,19.10
2019-04-16T11:46:44.875Z,18.70
2019-04-16T11:49:15.018Z,18.90
2019-04-16T11:51:41.749Z,19.10
2019-04-16T11:54:12.470Z,19.30
2019-04-16T11:56:39.742Z,19.00
2019-04-16T11:59:06.659Z,19.40
2019-04-16T12:01:33.353Z,19.90
2019-04-16T12:03:59.981Z,19.80
2019-04-16T12:06:28.621Z,20.10
2019-04-16T12:08:56.221Z,18.80
2019-04-16T12:11:23.819Z,19.80
2019-04-16T12:13:50.798Z,19.70
2019-04-16T12:16:17.689Z,20.10
2019-04-16T12:18:44.540Z,20.60
2019-04-16T12:21:11.266Z,20.30
2019-04-16T12:23:38.889Z,20.00
2019-04-16T12:26:08.891Z,20.00
2019-04-16T12:28:33.990Z,20.00
2019-04-16T12:31:00.812Z,19.50
2019-04-16T12:33:27.456Z,19.80
2019-04-16T12:35:54.395Z,19.80
2019-04-16T12:38:21.394Z,18.80
2019-04-16T12:40:48.141Z,20.00
2019-04-16T12:43:16.254Z,19.20
2019-04-16T12:45:43.466Z,20.00
2019-04-16T12:48:10.226Z,19.00
2019-04-16T12:50:37.501Z,19.90
2019-04-16T12:53:04.430Z,19.70
2019-04-16T12:55:32.824Z,20.80
2019-04-16T12:57:59.402Z,20.90
2019-04-16T13:00:31.295Z,20.70
2019-04-16T13:02:54.573Z,20.40
2019-04-16T13:05:21.826Z,20.90
2019-04-16T13:07:48.439Z,20.70
2019-04-16T13:10:16.320Z,20.70
2019-04-16T13:12:43.243Z,20.80
2019-04-16T13:15:09.888Z,20.10
2019-04-16T13:17:36.631Z,20.10
2019-04-16T13:20:03.472Z,19.90
2019-04-16T13:22:30.118Z,20.10
2019-04-16T13:24:57.087Z,19.10
2019-04-16T13:27:23.693Z,19.70
2019-04-16T13:29:50.383Z,19.90
2019-04-16T13:32:18.253Z,19.60
2019-04-16T13:34:45.135Z,19.40
2019-04-16T13:37:12.047Z,19.80
2019-04-16T13:39:40.366Z,20.50
2019-04-16T13:42:07.208Z,20.90
2019-04-16T13:44:34.089Z,21.40
2019-04-16T13:47:03.596Z,21.10
2019-04-16T13:49:31.685Z,21.20
2019-04-16T13:52:00.618Z,20.90
2019-04-16T13:56:59.582Z,21.10
2019-04-16T13:59:31.033Z,21.00
2019-04-16T14:01:59.077Z,19.90
2019-04-16T14:04:31.526Z,19.90
2019-04-16T14:07:00.420Z,20.00
2019-04-16T14:09:29.715Z,19.80
2019-04-16T14:12:03.903Z,20.30
2019-04-16T14:14:27.956Z,19.90
2019-04-16T14:17:09.689Z,20.20
2019-04-16T14:19:37.997Z,20.50
2019-04-16T14:22:21.795Z,19.60
2019-04-16T14:24:45.939Z,20.10
2019-04-16T14:27:14.456Z,19.90
2019-04-16T14:29:44.312Z,20.10
2019-04-16T14:32:10.820Z,19.90
2019-04-16T14:34:40.612Z,20.60
2019-04-16T14:37:09.861Z,20.50
2019-04-16T14:39:36.422Z,20.50
2019-04-16T14:42:05.933Z,21.00
2019-04-16T14:44:34.616Z,20.70
2019-04-16T14:47:02.100Z,20.70
2019-04-16T14:49:32.271Z,20.50
2019-04-16T14:52:02.050Z,19.80
2019-04-16T14:54:32.224Z,19.60
2019-04-16T14:57:01.588Z,20.10
2019-04-16T14:59:35.217Z,20.40
2019-04-16T15:01:59.008Z,20.50
2019-04-16T15:04:30.101Z,20.60
2019-04-16T15:06:58.018Z,20.30
2019-04-16T15:09:24.945Z,20.00
2019-04-16T15:11:52.411Z,20.20
2019-04-16T15:14:23.409Z,20.00
2019-04-16T15:16:51.459Z,20.50
2019-04-16T15:19:20.356Z,20.70
2019-04-16T15:24:34.192Z,20.60
2019-04-16T15:27:01.163Z,20.70
2019-04-16T15:29:29.827Z,20.70
2019-04-16T15:31:57.445Z,20.60
2019-04-16T15:34:24.734Z,19.40
2019-04-16T15:36:55.108Z,19.00
2019-04-16T15:39:20.677Z,19.50
2019-04-16T15:44:45.512Z,20.00
2019-04-16T15:47:14.046Z,19.90
2019-04-16T15:49:40.856Z,19.90
2019-04-16T15:52:09.915Z,19.70
2019-04-16T15:54:36.262Z,19.50
2019-04-16T15:57:02.990Z,20.20
2019-04-16T15:59:29.974Z,20.20
2019-04-16T16:01:56.919Z,20.10
2019-04-16T16:04:23.705Z,20.20
2019-04-16T16:06:52.390Z,20.10
2019-04-16T16:09:19.546Z,20.10
2019-04-16T16:11:48.011Z,20.20
2019-04-16T16:14:14.922Z,20.30
2019-04-16T16:16:42.402Z,20.00
2019-04-16T16:19:11.978Z,19.20
2019-04-16T16:21:38.063Z,19.20
2019-04-16T16:24:07.559Z,19.70
2019-04-16T16:26:32.924Z,19.50
2019-04-16T16:28:59.507Z,19.10
2019-04-16T16:31:26.870Z,19.70
2019-04-16T16:33:54.036Z,20.10
2019-04-16T16:36:21.279Z,20.20
2019-04-16T16:38:49.141Z,19.70
2019-04-16T16:41:16.751Z,19.70
2019-04-16T16:43:43.624Z,20.00
2019-04-16T16:46:10.512Z,20.50
2019-04-16T16:48:37.026Z,22.30
2019-04-16T16:51:03.565Z,23.60
2019-04-16T16:53:30.133Z,23.90
2019-04-16T16:55:56.667Z,23.00
2019-04-16T16:58:23.222Z,21.10
2019-04-16T17:00:49.746Z,20.90
2019-04-16T17:03:16.609Z,20.50
2019-04-16T17:05:43.439Z,19.60
2019-04-16T17:08:10.352Z,19.10
2019-04-16T17:10:37.033Z,19.20
2019-04-16T17:13:07.011Z,19.10
2019-04-16T17:15:33.877Z,19.10
2019-04-16T17:18:01.066Z,19.00
2019-04-16T17:20:27.863Z,18.90
2019-04-16T17:22:54.392Z,18.60
2019-04-16T17:25:35.596Z,18.40
2019-04-16T17:27:52.036Z,18.10
2019-04-16T17:30:19.521Z,18.20
2019-04-16T17:32:46.034Z,18.10
2019-04-16T17:35:15.574Z,18.00
2019-04-16T17:37:41.190Z,17.90
2019-04-16T17:40:08.133Z,17.60
2019-04-16T17:42:37.625Z,16.80
2019-04-16T17:45:03.372Z,16.80
2019-04-16T17:47:32.448Z,16.60
2019-04-16T17:50:03.986Z,16.40
2019-04-16T17:52:30.723Z,16.50
2019-04-16T17:54:57.456Z,16.50
2019-04-16T17:57:28.983Z,16.50
2019-04-16T17:59:54.558Z,16.30
2019-04-16T18:02:21.162Z,15.60
2019-04-16T18:04:47.913Z,15.50
2019-04-16T18:07:16.873Z,15.00
2019-04-16T18:09:43.860Z,14.70
2019-04-16T18:12:12.712Z,14.50
2019-04-16T18:17:26.662Z,14.60
2019-04-16T18:19:53.050Z,14.60
2019-04-16T18:22:23.062Z,14.70
2019-04-16T18:24:52.042Z,14.60
2019-04-16T18:27:18.581Z,14.80
2019-04-16T18:29:46.121Z,15.00
2019-04-16T18:32:15.060Z,14.80
2019-04-16T18:34:46.353Z,14.90
2019-04-16T18:37:14.906Z,14.70
2019-04-16T18:39:43.481Z,14.60
2019-04-16T18:42:12.397Z,14.50
2019-04-16T18:44:39.789Z,14.30
2019-04-16T18:47:10.557Z,14.20
2019-04-16T18:49:37.211Z,14.40
2019-04-16T18:54:53.364Z,14.00
2019-04-16T18:57:20.101Z,14.20
2019-04-16T18:59:47.124Z,14.10
2019-04-16T19:02:20.307Z,14.00
2019-04-16T19:04:50.811Z,14.00
2019-04-16T19:07:18.120Z,13.90
2019-04-16T19:09:47.406Z,13.60
2019-04-16T19:12:16.769Z,13.70
2019-04-16T19:14:45.589Z,13.80
2019-04-16T19:17:16.473Z,13.50
2019-04-16T19:19:48.365Z,13.40
2019-04-16T19:22:18.440Z,13.60
2019-04-16T19:24:45.217Z,13.70
2019-04-16T19:29:59.349Z,13.60
2019-04-16T19:32:30.173Z,13.50
2019-04-16T19:35:09.328Z,13.40
2019-04-16T19:37:29.681Z,13.00
2019-04-16T19:40:00.507Z,13.00
2019-04-16T19:42:28.798Z,13.00
2019-04-16T19:44:59.461Z,12.80
2019-04-16T19:47:27.913Z,12.90
2019-04-16T19:49:56.487Z,12.80
2019-04-16T19:52:25.990Z,12.70
2019-04-16T19:54:53.104Z,12.30
2019-04-16T19:57:23.277Z,12.30
2019-04-16T19:59:52.778Z,12.00
2019-04-16T20:02:21.362Z,11.70
2019-04-16T20:04:50.761Z,11.90
2019-04-16T20:07:17.585Z,12.00
2019-04-16T20:09:45.234Z,12.20
2019-04-16T20:12:14.495Z,12.20
2019-04-16T20:14:44.514Z,11.50
2019-04-16T20:17:11.538Z,11.90
2019-04-16T20:19:40.964Z,12.10
2019-04-16T20:22:11.677Z,11.80
2019-04-16T20:24:43.116Z,11.80
2019-04-16T20:27:13.380Z,11.40
2019-04-16T20:29:43.470Z,11.60
2019-04-16T20:32:17.833Z,11.50
2019-04-16T20:34:46.285Z,11.50
2019-04-16T20:37:16.100Z,11.30
2019-04-16T20:39:44.898Z,11.10
2019-04-16T20:42:15.254Z,11.10
2019-04-16T20:44:58.008Z,11.00
2019-04-16T20:47:26.408Z,11.20
2019-04-16T20:49:53.383Z,11.00
2019-04-16T20:52:23.296Z,11.10
2019-04-16T20:54:54.633Z,11.10
2019-04-16T20:57:25.702Z,11.10
2019-04-16T20:59:53.012Z,11.00
2019-04-16T21:02:19.910Z,11.10
2019-04-16T21:04:47.417Z,11.10
2019-04-16T21:07:17.965Z,11.20
2019-04-16T21:09:45.538Z,11.20
2019-04-16T21:12:16.836Z,10.90
2019-04-16T21:14:47.154Z,10.80
2019-04-16T21:17:17.261Z,10.80
2019-04-16T21:19:47.599Z,10.90
2019-04-16T21:22:14.611Z,10.90
2019-04-16T21:24:42.562Z,10.80
2019-04-16T21:27:10.729Z,10.80
2019-04-16T21:29:39.169Z,10.30
2019-04-16T21:32:09.841Z,10.30
2019-04-16T21:34:39.460Z,10.40
2019-04-16T21:37:09.602Z,10.40
2019-04-16T21:39:35.727Z,10.40
2019-04-16T21:42:06.151Z,10.40
2019-04-16T21:44:36.550Z,9.90
2019-04-16T21:47:03.295Z,9.20
2019-04-16T21:49:38.426Z,9.50
2019-04-16T21:51:58.354Z,9.70
2019-04-16T21:54:26.820Z,10.00
2019-04-16T21:56:54.877Z,9.90
2019-04-16T21:59:22.098Z,9.80
2019-04-16T22:01:48.687Z,10.10
2019-04-16T22:04:15.420Z,10.00
2019-04-16T22:06:42.914Z,9.50
2019-04-16T22:09:09.588Z,9.70
2019-04-16T22:14:09.065Z,9.50
2019-04-16T22:16:35.685Z,9.50
2019-04-16T22:19:02.320Z,9.60
2019-04-16T22:21:29.270Z,9.50
2019-04-16T22:23:55.953Z,9.20
2019-04-16T22:26:22.561Z,9.50
2019-04-16T22:28:49.234Z,9.70
2019-04-16T22:31:15.899Z,9.60
2019-04-16T22:33:42.498Z,9.50
2019-04-16T22:36:09.577Z,9.30
2019-04-16T22:38:36.479Z,8.70
2019-04-16T22:41:03.119Z,8.90
2019-04-16T22:43:29.731Z,9.10
2019-04-16T22:45:56.483Z,9.20
2019-04-16T22:48:23.198Z,8.70
2019-04-16T22:50:50.043Z,9.00
2019-04-16T22:53:17.352Z,9.00
2019-04-16T22:55:45.004Z,8.70
2019-04-16T22:58:11.635Z,8.80
2019-04-16T23:00:38.474Z,8.80
2019-04-16T23:03:05.197Z,8.70
2019-04-16T23:05:32.117Z,8.80
2019-04-16T23:07:58.739Z,8.70
2019-04-16T23:10:25.695Z,8.60
2019-04-16T23:12:52.608Z,8.80
2019-04-16T23:15:19.236Z,8.90
2019-04-16T23:17:46.914Z,8.90
2019-04-16T23:20:28.163Z,8.30
2019-04-16T23:22:43.654Z,8.30
2019-04-16T23:25:10.715Z,8.60
2019-04-16T23:27:38.875Z,8.70
2019-04-16T23:30:05.540Z,8.30
2019-04-16T23:32:32.164Z,8.20
2019-04-16T23:34:59.319Z,8.40
2019-04-16T23:37:26.046Z,8.70
2019-04-16T23:39:52.695Z,8.90
2019-04-16T23:42:19.833Z,9.00
2019-04-16T23:44:46.664Z,8.90
2019-04-16T23:47:17.189Z,8.30
2019-04-16T23:52:35.283Z,8.20
2019-04-16T23:55:08.062Z,8.50
2019-04-16T23:57:35.934Z,8.60
